createdAt,value
2022-11-14T00:00:55.016Z,101375.19
2022-11-14T00:03:21.627Z,101374.38
2022-11-14T00:05:48.146Z,101368.41
2022-11-14T00:08:20.419Z,101367.63
2022-11-14T00:10:48.845Z,101361.59
2022-11-14T00:13:16.806Z,101356.53
2022-11-14T00:15:44.358Z,101359.09
2022-11-14T00:18:11.068Z,101354.81
2022-11-14T00:20:37.520Z,101361.72
2022-11-14T00:23:04.150Z,101352.28
2022-11-14T00:25:32.490Z,101354.88
2022-11-14T00:27:59.749Z,101352.44
2022-11-14T00:30:27.373Z,101353.34
2022-11-14T00:32:54.032Z,101350.78
2022-11-14T00:35:20.822Z,101356.88
2022-11-14T00:37:47.254Z,101349.19
2022-11-14T00:40:14.817Z,101354.38
2022-11-14T00:42:41.542Z,101344.84
2022-11-14T00:45:08.426Z,101346.66
2022-11-14T00:47:34.927Z,101345.00
2022-11-14T00:50:01.414Z,101344.19
2022-11-14T00:52:27.874Z,101347.72
2022-11-14T00:54:54.311Z,101339.22
2022-11-14T00:57:20.810Z,101333.25
2022-11-14T00:59:47.671Z,101318.72
2022-11-14T01:02:14.275Z,101322.25
2022-11-14T01:04:40.753Z,101328.31
2022-11-14T01:07:07.230Z,101315.41
2022-11-14T01:09:34.110Z,101325.81
2022-11-14T01:12:00.640Z,101313.75
2022-11-14T01:14:27.243Z,101318.94
2022-11-14T01:16:53.713Z,101305.19
2022-11-14T01:19:20.198Z,101308.75
2022-11-14T01:21:46.662Z,101302.88
2022-11-14T01:24:13.140Z,101308.97
2022-11-14T01:26:39.597Z,101307.31
2022-11-14T01:29:06.103Z,101298.66
2022-11-14T01:31:32.554Z,101295.16
2022-11-14T01:33:59.091Z,101289.16
2022-11-14T01:36:25.641Z,101289.13
2022-11-14T01:38:53.838Z,101287.47
2022-11-14T01:41:20.900Z,101279.75
2022-11-14T01:43:47.705Z,101281.41
2022-11-14T01:46:23.355Z,101272.84
2022-11-14T01:49:01.262Z,101268.63
2022-11-14T01:51:42.446Z,101264.34
2022-11-14T01:54:15.114Z,101261.72
2022-11-14T01:56:50.419Z,101251.50
2022-11-14T01:59:23.106Z,101250.56
2022-11-14T02:01:51.661Z,101245.47
2022-11-14T02:04:22.696Z,101247.16
2022-11-14T02:06:52.218Z,101249.84
2022-11-14T02:09:18.677Z,101252.50
2022-11-14T02:11:47.109Z,101258.56
2022-11-14T02:14:13.656Z,101255.97
2022-11-14T02:16:51.592Z,101256.84
2022-11-14T02:19:45.037Z,101254.34
2022-11-14T02:22:11.577Z,101250.97
2022-11-14T02:24:38.057Z,101254.56
2022-11-14T02:27:06.342Z,101252.97
2022-11-14T02:29:33.762Z,101251.28
2022-11-14T02:32:00.268Z,101253.88
2022-11-14T02:34:26.771Z,101247.09
2022-11-14T02:36:53.546Z,101250.56
2022-11-14T02:39:19.991Z,101237.84
2022-11-14T02:41:46.485Z,101244.72
2022-11-14T02:44:13.141Z,101239.63
2022-11-14T02:46:39.703Z,101237.09
2022-11-14T02:49:06.163Z,101236.34
2022-11-14T02:51:33.092Z,101228.63
2022-11-14T02:53:59.564Z,101227.91
2022-11-14T02:56:26.022Z,101221.09
2022-11-14T02:58:52.995Z,101222.84
2022-11-14T03:01:21.212Z,101218.56
2022-11-14T03:03:48.226Z,101216.88
2022-11-14T03:06:14.774Z,101217.69
2022-11-14T03:08:41.245Z,101209.91
2022-11-14T03:11:09.743Z,101215.94
2022-11-14T03:13:36.753Z,101206.53
2022-11-14T03:16:11.300Z,101205.72
2022-11-14T03:18:37.921Z,101203.13
2022-11-14T03:21:13.274Z,101201.41
2022-11-14T03:23:39.874Z,101202.19
2022-11-14T03:26:08.607Z,101208.13
2022-11-14T03:28:36.285Z,101202.91
2022-11-14T03:31:03.218Z,101202.88
2022-11-14T03:33:30.040Z,101202.06
2022-11-14T03:35:56.487Z,101192.56
2022-11-14T03:38:23.216Z,101190.88
2022-11-14T03:40:51.606Z,101191.72
2022-11-14T03:43:19.227Z,101187.44
2022-11-14T03:45:46.791Z,101180.59
2022-11-14T03:48:13.843Z,101183.19
2022-11-14T03:50:41.567Z,101184.06
2022-11-14T03:53:08.455Z,101191.84
2022-11-14T03:55:34.991Z,101186.66
2022-11-14T03:58:01.813Z,101188.47
2022-11-14T04:00:29.006Z,101190.13
2022-11-14T04:02:58.392Z,101189.19
2022-11-14T04:05:25.223Z,101182.25
2022-11-14T04:07:51.762Z,101185.69
2022-11-14T04:10:18.681Z,101172.78
2022-11-14T04:12:52.863Z,101171.19
2022-11-14T04:15:20.555Z,101167.72
2022-11-14T04:17:47.390Z,101169.47
2022-11-14T04:20:15.244Z,101163.53
2022-11-14T04:22:41.844Z,101171.28
2022-11-14T04:25:09.347Z,101168.78
2022-11-14T04:27:36.236Z,101167.09
2022-11-14T04:30:03.861Z,101160.28
2022-11-14T04:32:30.495Z,101164.56
2022-11-14T04:34:57.237Z,101161.09
2022-11-14T04:37:24.119Z,101165.31
2022-11-14T04:39:50.593Z,101166.13
2022-11-14T04:42:17.072Z,101164.41
2022-11-14T04:44:43.630Z,101161.81
2022-11-14T04:47:10.132Z,101165.28
2022-11-14T04:49:36.678Z,101163.53
2022-11-14T04:52:03.240Z,101167.88
2022-11-14T04:54:29.685Z,101165.28
2022-11-14T04:56:56.167Z,101160.16
2022-11-14T04:59:22.717Z,101152.38
2022-11-14T05:01:49.448Z,101153.13
2022-11-14T05:04:16.073Z,101150.56
2022-11-14T05:06:42.656Z,101147.03
2022-11-14T05:09:09.684Z,101134.09
2022-11-14T05:11:36.140Z,101134.06
2022-11-14T05:14:02.633Z,101128.03
2022-11-14T05:16:29.209Z,101119.53
2022-11-14T05:18:55.716Z,101132.44
2022-11-14T05:21:22.225Z,101133.34
2022-11-14T05:23:48.677Z,101125.63
2022-11-14T05:26:17.083Z,101121.41
2022-11-14T05:28:43.595Z,101123.19
2022-11-14T05:31:22.354Z,101123.34
2022-11-14T05:33:48.930Z,101123.34
2022-11-14T05:36:16.938Z,101120.81
2022-11-14T05:38:43.680Z,101125.88
2022-11-14T05:41:13.104Z,101113.91
2022-11-14T05:43:40.194Z,101114.75
2022-11-14T05:46:10.422Z,101117.25
2022-11-14T05:48:37.408Z,101119.00
2022-11-14T05:51:05.452Z,101118.22
2022-11-14T05:53:33.446Z,101118.28
2022-11-14T05:56:04.612Z,101108.81
2022-11-14T05:58:35.050Z,101107.91
2022-11-14T06:01:12.682Z,101111.31
2022-11-14T06:03:41.496Z,101107.81
2022-11-14T06:06:09.818Z,101101.72
2022-11-14T06:08:36.835Z,101101.69
2022-11-14T06:11:06.596Z,101095.59
2022-11-14T06:13:33.678Z,101099.06
2022-11-14T06:16:01.673Z,101087.81
2022-11-14T06:18:29.632Z,101094.66
2022-11-14T06:21:08.509Z,101088.72
2022-11-14T06:23:34.927Z,101100.00
2022-11-14T06:26:03.260Z,101102.59
2022-11-14T06:28:30.915Z,101108.69
2022-11-14T06:30:59.945Z,101119.91
2022-11-14T06:33:27.888Z,101114.72
2022-11-14T06:36:01.657Z,101119.97
2022-11-14T06:38:30.784Z,101116.41
2022-11-14T06:41:11.651Z,101114.72
2022-11-14T06:43:41.094Z,101110.41
2022-11-14T06:46:09.805Z,101107.84
2022-11-14T06:48:37.194Z,101112.97
2022-11-14T06:51:04.862Z,101102.56
2022-11-14T06:53:33.975Z,101102.50
2022-11-14T06:56:03.249Z,101101.50
2022-11-14T06:58:32.298Z,101104.03
2022-11-14T07:01:07.585Z,101103.97
2022-11-14T07:03:34.790Z,101104.78
2022-11-14T07:06:02.231Z,101106.44
2022-11-14T07:08:29.353Z,101104.69
2022-11-14T07:11:02.479Z,101110.63
2022-11-14T07:13:28.937Z,101103.72
2022-11-14T07:15:55.879Z,101105.47
2022-11-14T07:18:22.434Z,101103.72
2022-11-14T07:20:49.027Z,101112.31
2022-11-14T07:23:21.486Z,101113.91
2022-11-14T07:25:49.394Z,101103.38
2022-11-14T07:28:16.383Z,101109.31
2022-11-14T07:30:42.910Z,101100.66
2022-11-14T07:33:10.234Z,101107.50
2022-11-14T07:35:39.739Z,101105.72
2022-11-14T07:38:06.260Z,101098.75
2022-11-14T07:40:32.792Z,101097.72
2022-11-14T07:43:00.813Z,101102.59
2022-11-14T07:45:29.018Z,101111.59
2022-11-14T07:48:02.406Z,101097.38
2022-11-14T07:50:30.688Z,101105.59
2022-11-14T07:52:57.665Z,101101.91
2022-11-14T07:55:24.839Z,101097.50
2022-11-14T07:57:54.986Z,101102.53
2022-11-14T08:00:21.563Z,101099.72
2022-11-14T08:02:48.284Z,101098.69
2022-11-14T08:05:14.849Z,101103.63
2022-11-14T08:07:41.462Z,101100.81
2022-11-14T08:10:08.854Z,101104.13
2022-11-14T08:12:35.329Z,101105.03
2022-11-14T08:15:02.298Z,101105.03
2022-11-14T08:17:28.806Z,101113.56
2022-11-14T08:19:55.232Z,101107.38
2022-11-14T08:22:21.923Z,101102.94
2022-11-14T08:24:48.586Z,101104.78
2022-11-14T08:27:15.183Z,101098.63
2022-11-14T08:29:41.666Z,101096.00
2022-11-14T08:32:08.160Z,101096.81
2022-11-14T08:34:34.651Z,101088.91
2022-11-14T08:37:01.476Z,101086.28
2022-11-14T08:39:28.118Z,101083.66
2022-11-14T08:41:55.428Z,101087.97
2022-11-14T08:44:21.904Z,101080.25
2022-11-14T08:46:49.691Z,101080.31
2022-11-14T08:49:16.211Z,101074.25
2022-11-14T08:51:42.653Z,101078.38
2022-11-14T08:54:09.219Z,101070.41
2022-11-14T08:56:35.693Z,101076.56
2022-11-14T08:59:05.442Z,101063.97
2022-11-14T09:01:34.775Z,101069.13
2022-11-14T09:04:02.217Z,101075.78
2022-11-14T09:06:29.001Z,101067.81
2022-11-14T09:08:55.556Z,101063.44
2022-11-14T09:11:22.523Z,101069.44
2022-11-14T09:13:48.979Z,101066.88
2022-11-14T09:16:15.455Z,101068.41
2022-11-14T09:18:42.040Z,101071.78
2022-11-14T09:21:09.446Z,101072.97
2022-11-14T09:23:36.389Z,101078.00
2022-11-14T09:26:07.647Z,101089.34
2022-11-14T09:28:34.898Z,101084.25
2022-11-14T09:31:07.117Z,101081.69
2022-11-14T09:33:34.540Z,101086.03
2022-11-14T09:36:04.306Z,101081.78
2022-11-14T09:38:37.034Z,101081.69
2022-11-14T09:41:13.842Z,101086.06
2022-11-14T09:44:25.570Z,101085.97
2022-11-14T09:47:01.379Z,101095.53
2022-11-14T09:49:37.784Z,101087.81
2022-11-14T09:52:22.039Z,101090.44
2022-11-14T09:55:01.331Z,101085.94
2022-11-14T09:57:28.994Z,101075.53
2022-11-14T09:59:56.641Z,101077.06
2022-11-14T10:02:52.614Z,101076.22
2022-11-14T10:05:33.015Z,101065.94
2022-11-14T10:08:27.089Z,101072.63
2022-11-14T10:10:58.341Z,101072.56
2022-11-14T10:13:41.693Z,101072.63
2022-11-14T10:16:23.598Z,101068.28
2022-11-14T10:19:29.249Z,101057.09
2022-11-14T10:22:21.815Z,101052.81
2022-11-14T10:25:20.150Z,101058.91
2022-11-14T10:28:05.481Z,101064.84
2022-11-14T10:30:40.768Z,101057.97
2022-11-14T10:33:19.911Z,101061.41
2022-11-14T10:35:55.564Z,101049.38
2022-11-14T10:38:34.566Z,101049.22
2022-11-14T10:41:05.120Z,101045.00
2022-11-14T10:43:39.635Z,101035.63
2022-11-14T10:46:47.608Z,101040.91
2022-11-14T10:49:22.763Z,101039.09
2022-11-14T10:51:59.730Z,101041.59
2022-11-14T10:54:47.167Z,101032.75
2022-11-14T10:57:17.090Z,101028.63
2022-11-14T10:59:43.861Z,101031.91
2022-11-14T11:02:11.153Z,101025.66
2022-11-14T11:04:40.395Z,101013.41
2022-11-14T11:07:06.916Z,101008.94
2022-11-14T11:09:54.940Z,101013.91
2022-11-14T11:12:23.452Z,101015.75
2022-11-14T11:15:14.206Z,101026.78
2022-11-14T11:17:57.715Z,101029.19
2022-11-14T11:20:29.344Z,101026.50
2022-11-14T11:23:26.338Z,101029.03
2022-11-14T11:26:07.998Z,101017.63
2022-11-14T11:28:36.833Z,101003.69
2022-11-14T11:31:09.324Z,100998.28
2022-11-14T11:33:38.587Z,101003.22
2022-11-14T11:36:18.463Z,101002.97
2022-11-14T11:38:46.119Z,100991.53
2022-11-14T11:44:19.157Z,100983.50
2022-11-14T11:46:59.246Z,100979.03
2022-11-14T11:49:48.621Z,100971.97
2022-11-14T11:52:28.544Z,100974.44
2022-11-14T11:54:55.034Z,100972.41
2022-11-14T11:57:28.321Z,100970.31
2022-11-14T12:00:04.032Z,100967.75
2022-11-14T12:02:30.824Z,100961.84
2022-11-14T12:04:58.868Z,100943.56
2022-11-14T12:07:42.954Z,100939.88
2022-11-14T12:10:26.539Z,100914.59
2022-11-14T12:13:11.690Z,100913.81
2022-11-14T12:15:59.634Z,100901.75
2022-11-14T12:18:46.419Z,100912.53
2022-11-14T12:21:19.737Z,100917.72
2022-11-14T12:23:58.659Z,100916.03
2022-11-14T12:26:44.819Z,100906.44
2022-11-14T12:29:46.094Z,100909.13
2022-11-14T12:32:19.314Z,100899.00
2022-11-14T12:34:48.072Z,100889.47
2022-11-14T12:37:23.675Z,100897.25
2022-11-14T12:40:05.115Z,100890.53
2022-11-14T12:42:32.265Z,100898.25
2022-11-14T12:44:58.738Z,100890.41
2022-11-14T12:47:29.038Z,100893.69
2022-11-14T12:49:56.597Z,100891.66
2022-11-14T12:52:44.501Z,100899.56
2022-11-14T12:55:26.331Z,100901.69
2022-11-14T12:58:23.988Z,100915.13
2022-11-14T13:00:50.400Z,100910.28
2022-11-14T13:03:41.724Z,100912.75
2022-11-14T13:06:43.721Z,100917.25
2022-11-14T13:09:10.234Z,100910.50
2022-11-14T13:11:59.631Z,100927.19
2022-11-14T13:14:45.160Z,100928.41
2022-11-14T13:17:36.076Z,100922.47
2022-11-14T13:20:49.507Z,100924.31
2022-11-14T13:23:28.561Z,100915.75
2022-11-14T13:26:21.472Z,100911.41
2022-11-14T13:28:50.918Z,100910.78
2022-11-14T13:31:17.560Z,100906.38
2022-11-14T13:33:52.192Z,100911.69
2022-11-14T13:36:39.990Z,100916.03
2022-11-14T13:39:23.768Z,100909.03
2022-11-14T13:42:17.036Z,100915.19
2022-11-14T13:45:14.290Z,100910.97
2022-11-14T13:48:05.393Z,100906.63
2022-11-14T13:50:36.878Z,100892.84
2022-11-14T13:53:12.615Z,100893.88
2022-11-14T13:56:04.771Z,100892.06
2022-11-14T13:58:55.598Z,100881.91
2022-11-14T14:01:40.207Z,100882.69
2022-11-14T14:04:31.674Z,100883.59
2022-11-14T14:07:07.213Z,100886.31
2022-11-14T14:10:08.441Z,100881.00
2022-11-14T14:12:38.989Z,100882.69
2022-11-14T14:15:29.678Z,100878.53
2022-11-14T14:18:01.068Z,100879.44
2022-11-14T14:21:02.786Z,100871.59
2022-11-14T14:24:01.435Z,100872.50
2022-11-14T14:26:48.870Z,100865.59
2022-11-14T14:29:30.830Z,100852.56
2022-11-14T14:32:11.862Z,100846.53
2022-11-14T14:34:41.757Z,100843.81
2022-11-14T14:37:19.889Z,100848.13
2022-11-14T14:40:08.910Z,100843.03
2022-11-14T14:42:45.949Z,100843.16
2022-11-14T14:45:18.562Z,100846.69
2022-11-14T14:47:48.512Z,100829.38
2022-11-14T14:50:23.663Z,100843.16
2022-11-14T14:53:01.217Z,100829.50
2022-11-14T14:55:33.376Z,100829.50
2022-11-14T14:58:29.997Z,100834.75
2022-11-14T15:01:01.439Z,100818.38
2022-11-14T15:03:36.727Z,100822.66
2022-11-14T15:06:07.758Z,100820.91
2022-11-14T15:08:39.041Z,100820.00
2022-11-14T15:11:06.506Z,100826.84
2022-11-14T15:13:34.477Z,100828.88
2022-11-14T15:16:03.231Z,100827.13
2022-11-14T15:18:32.602Z,100832.31
2022-11-14T15:21:17.534Z,100827.06
2022-11-14T15:23:44.078Z,100818.56
2022-11-14T15:26:17.445Z,100820.31
2022-11-14T15:28:45.085Z,100812.63
2022-11-14T15:31:22.348Z,100814.31
2022-11-14T15:34:05.070Z,100804.78
2022-11-14T15:36:31.609Z,100810.03
2022-11-14T15:39:27.400Z,100809.22
2022-11-14T15:42:19.745Z,100807.44
2022-11-14T15:44:47.120Z,100810.91
2022-11-14T15:47:19.884Z,100802.34
2022-11-14T15:50:24.997Z,100800.66
2022-11-14T15:52:59.345Z,100797.84
2022-11-14T15:55:26.218Z,100797.06
2022-11-14T15:58:13.675Z,100795.31
2022-11-14T16:00:52.228Z,100800.66
2022-11-14T16:03:21.829Z,100794.63
2022-11-14T16:05:48.431Z,100792.88
2022-11-14T16:08:14.926Z,100800.66
2022-11-14T16:10:41.369Z,100806.75
2022-11-14T16:13:07.885Z,100808.44
2022-11-14T16:15:34.709Z,100808.38
2022-11-14T16:18:02.014Z,100805.78
2022-11-14T16:20:32.009Z,100803.31
2022-11-14T16:23:01.131Z,100804.25
2022-11-14T16:25:30.471Z,100803.31
2022-11-14T16:27:57.125Z,100798.84
2022-11-14T16:30:25.560Z,100801.66
2022-11-14T16:32:52.930Z,100804.31
2022-11-14T16:35:24.870Z,100795.59
2022-11-14T16:37:52.234Z,100798.97
2022-11-14T16:40:29.939Z,100798.22
2022-11-14T16:43:01.074Z,100800.66
2022-11-14T16:45:28.259Z,100796.31
2022-11-14T16:47:54.872Z,100794.72
2022-11-14T16:50:21.694Z,100789.66
2022-11-14T16:52:48.269Z,100793.94
2022-11-14T16:55:15.030Z,100794.06
2022-11-14T16:57:41.500Z,100803.53
2022-11-14T17:00:11.147Z,100801.91
2022-11-14T17:02:39.797Z,100798.50
2022-11-14T17:05:06.718Z,100799.31
2022-11-14T17:07:33.545Z,100792.53
2022-11-14T17:10:00.819Z,100792.53
2022-11-14T17:12:28.593Z,100794.31
2022-11-14T17:14:55.068Z,100786.56
2022-11-14T17:17:21.826Z,100787.22
2022-11-14T17:19:48.692Z,100781.19
2022-11-14T17:22:16.655Z,100782.00
2022-11-14T17:24:43.408Z,100776.78
2022-11-14T17:27:10.055Z,100787.19
2022-11-14T17:29:36.705Z,100779.56
2022-11-14T17:32:04.295Z,100780.53
2022-11-14T17:34:32.051Z,100777.94
2022-11-14T17:36:58.585Z,100777.94
2022-11-14T17:39:25.137Z,100771.03
2022-11-14T17:41:51.579Z,100771.81
2022-11-14T17:44:19.027Z,100770.97
2022-11-14T17:46:47.436Z,100771.91
2022-11-14T17:49:13.923Z,100766.63
2022-11-14T17:51:40.403Z,100764.09
2022-11-14T17:54:07.096Z,100767.41
2022-11-14T17:56:33.858Z,100774.41
2022-11-14T17:59:00.505Z,100764.94
2022-11-14T18:01:28.691Z,100764.94
2022-11-14T18:03:59.289Z,100767.41
2022-11-14T18:06:28.280Z,100767.34
2022-11-14T18:08:54.843Z,100758.72
2022-11-14T18:11:21.652Z,100774.25
2022-11-14T18:13:48.219Z,100771.69
2022-11-14T18:16:19.644Z,100774.41
2022-11-14T18:18:46.462Z,100772.72
2022-11-14T18:21:18.323Z,100772.66
2022-11-14T18:23:53.636Z,100764.94
2022-11-14T18:26:23.173Z,100770.00
2022-11-14T18:28:57.847Z,100764.03
2022-11-14T18:31:25.306Z,100764.94
2022-11-14T18:33:52.069Z,100764.03
2022-11-14T18:36:19.024Z,100763.97
2022-11-14T18:38:45.692Z,100757.25
2022-11-14T18:41:18.025Z,100759.13
2022-11-14T18:43:45.279Z,100754.91
2022-11-14T18:46:22.848Z,100755.91
2022-11-14T18:48:53.983Z,100756.91
2022-11-14T18:51:23.055Z,100760.28
2022-11-14T18:53:51.416Z,100760.38
2022-11-14T18:56:20.732Z,100761.22
2022-11-14T18:58:47.623Z,100758.69
2022-11-14T19:01:24.944Z,100762.97
2022-11-14T19:03:52.844Z,100759.47
2022-11-14T19:06:19.461Z,100764.66
2022-11-14T19:08:45.988Z,100761.13
2022-11-14T19:11:33.718Z,100770.66
2022-11-14T19:14:05.375Z,100765.66
2022-11-14T19:16:34.041Z,100769.16
2022-11-14T19:19:01.038Z,100767.75
2022-11-14T19:21:28.594Z,100768.78
2022-11-14T19:23:55.424Z,100762.97
2022-11-14T19:26:22.877Z,100762.09
2022-11-14T19:28:49.677Z,100764.00
2022-11-14T19:31:17.038Z,100754.75
2022-11-14T19:33:45.353Z,100762.59
2022-11-14T19:36:14.494Z,100762.69
2022-11-14T19:38:44.279Z,100760.22
2022-11-14T19:41:20.269Z,100755.06
2022-11-14T19:43:47.672Z,100762.88
2022-11-14T19:46:18.032Z,100758.72
2022-11-14T19:48:44.595Z,100760.50
2022-11-14T19:51:13.629Z,100764.09
2022-11-14T19:53:41.026Z,100765.13
2022-11-14T19:56:10.263Z,100767.66
2022-11-14T19:58:37.993Z,100764.19
2022-11-14T20:01:08.279Z,100766.69
2022-11-14T20:03:35.319Z,100764.28
2022-11-14T20:06:03.099Z,100771.16
2022-11-14T20:08:29.615Z,100764.38
2022-11-14T20:11:03.832Z,100764.47
2022-11-14T20:13:36.613Z,100761.19
2022-11-14T20:16:17.748Z,100765.63
2022-11-14T20:18:46.104Z,100769.94
2022-11-14T20:21:14.593Z,100771.81
2022-11-14T20:23:41.303Z,100784.84
2022-11-14T20:26:11.345Z,100784.09
2022-11-14T20:28:43.160Z,100789.16
2022-11-14T20:31:18.328Z,100783.84
2022-11-14T20:33:47.473Z,100778.50
2022-11-14T20:36:19.710Z,100783.47
2022-11-14T20:38:47.507Z,100783.31
2022-11-14T20:41:14.873Z,100768.50
2022-11-14T20:43:41.766Z,100775.28
2022-11-14T20:46:13.165Z,100766.50
2022-11-14T20:48:40.614Z,100776.84
2022-11-14T20:51:11.550Z,100773.34
2022-11-14T20:53:40.255Z,100765.47
2022-11-14T20:56:07.502Z,100760.38
2022-11-14T20:58:34.234Z,100770.72
2022-11-14T21:01:01.188Z,100765.59
2022-11-14T21:03:31.982Z,100759.59
2022-11-14T21:06:00.953Z,100763.19
2022-11-14T21:08:29.016Z,100759.66
2022-11-14T21:11:01.362Z,100753.44
2022-11-14T21:13:46.700Z,100764.59
2022-11-14T21:16:16.249Z,100751.66
2022-11-14T21:18:47.723Z,100754.16
2022-11-14T21:21:17.338Z,100759.00
2022-11-14T21:23:45.332Z,100755.53
2022-11-14T21:26:15.851Z,100746.91
2022-11-14T21:28:44.988Z,100748.53
2022-11-14T21:31:17.201Z,100757.91
2022-11-14T21:33:44.369Z,100752.75
2022-11-14T21:36:42.789Z,100753.44
2022-11-14T21:38:59.144Z,100755.13
2022-11-14T21:41:27.943Z,100747.41
2022-11-14T21:43:56.508Z,100757.59
2022-11-14T21:46:23.934Z,100747.31
2022-11-14T21:48:51.231Z,100748.19
2022-11-14T21:51:23.065Z,100745.56
2022-11-14T21:53:54.270Z,100744.72
2022-11-14T21:56:24.832Z,100734.28
2022-11-14T21:59:12.071Z,100731.72
2022-11-14T22:02:06.546Z,100718.75
2022-11-14T22:04:33.972Z,100725.53
2022-11-14T22:07:07.945Z,100728.13
2022-11-14T22:09:34.936Z,100728.06
2022-11-14T22:12:01.827Z,100728.00
2022-11-14T22:14:29.795Z,100729.69
2022-11-14T22:16:57.869Z,100731.28
2022-11-14T22:19:24.628Z,100731.22
2022-11-14T22:21:51.699Z,100732.06
2022-11-14T22:24:18.210Z,100731.16
2022-11-14T22:26:44.701Z,100732.81
2022-11-14T22:29:15.237Z,100734.50
2022-11-14T22:31:41.729Z,100734.44
2022-11-14T22:34:08.319Z,100739.66
2022-11-14T22:36:35.732Z,100741.28
2022-11-14T22:39:02.611Z,100737.66
2022-11-14T22:41:32.967Z,100729.88
2022-11-14T22:44:00.805Z,100740.94
2022-11-14T22:46:28.405Z,100727.91
2022-11-14T22:48:55.694Z,100725.19
2022-11-14T22:51:24.709Z,100726.88
2022-11-14T22:53:54.135Z,100721.63
2022-11-14T22:56:23.027Z,100722.44
2022-11-14T22:58:49.940Z,100727.56
2022-11-14T23:01:22.128Z,100720.47
2022-11-14T23:03:54.307Z,100722.09
2022-11-14T23:06:21.975Z,100725.66
2022-11-14T23:08:48.645Z,100724.63
2022-11-14T23:11:21.475Z,100730.56
2022-11-14T23:13:50.170Z,100729.59
2022-11-14T23:16:19.857Z,100726.84
2022-11-14T23:18:47.504Z,100730.81
2022-11-14T23:21:17.198Z,100724.88
2022-11-14T23:23:43.697Z,100722.00
2022-11-14T23:26:15.959Z,100715.97
2022-11-14T23:28:42.813Z,100715.06
2022-11-14T23:31:10.509Z,100713.09
2022-11-14T23:33:36.967Z,100706.00
2022-11-14T23:36:03.965Z,100709.28
2022-11-14T23:38:33.391Z,100703.19
2022-11-14T23:41:01.473Z,100696.16
2022-11-14T23:43:29.419Z,100696.00
2022-11-14T23:45:56.835Z,100695.19
2022-11-14T23:48:23.781Z,100686.41
2022-11-14T23:50:55.482Z,100689.59
2022-11-14T23:53:23.100Z,100693.94
2022-11-14T23:55:54.336Z,100693.25
2022-11-14T23:58:22.809Z,100693.03
